createdAt,value
2018-11-20T00:00:42.291Z,14.27
2018-11-20T00:03:32.328Z,14.47
2018-11-20T00:06:13.444Z,14.57
2018-11-20T00:09:01.652Z,14.97
2018-11-20T00:11:50.428Z,15.57
2018-11-20T00:14:47.884Z,15.73
2018-11-20T00:17:36.347Z,15.97
2018-11-20T00:20:37.412Z,18.03
2018-11-20T00:23:30.154Z,17.47
2018-11-20T00:26:16.130Z,16.37
2018-11-20T00:29:11.112Z,17.40
2018-11-20T00:32:09.173Z,17.63
2018-11-20T00:34:58.561Z,15.37
2018-11-20T00:37:45.972Z,16.13
2018-11-20T00:40:50.161Z,17.07
2018-11-20T00:43:54.568Z,15.87
2018-11-20T00:46:51.780Z,17.07
2018-11-20T00:49:41.279Z,16.83
2018-11-20T00:52:36.097Z,16.73
2018-11-20T00:56:02.987Z,18.10
2018-11-20T00:58:53.539Z,16.73
2018-11-20T01:01:41.054Z,14.73
2018-11-20T01:04:48.046Z,19.57
2018-11-20T01:07:43.322Z,18.60
2018-11-20T01:10:31.498Z,18.30
2018-11-20T01:13:10.438Z,17.13
2018-11-20T01:16:17.228Z,17.90
2018-11-20T01:19:09.796Z,21.50
2018-11-20T01:22:31.910Z,19.20
2018-11-20T01:28:03.448Z,18.43
2018-11-20T01:28:11.072Z,21.00
2018-11-20T01:31:43.826Z,19.93
2018-11-20T01:36:02.036Z,17.37
2018-11-20T01:39:50.448Z,19.70
2018-11-20T01:42:37.913Z,20.50
2018-11-20T01:50:33.136Z,19.00
2018-11-20T01:55:21.376Z,18.87
2018-11-20T01:56:39.190Z,20.37
2018-11-20T02:02:14.856Z,20.57
2018-11-20T02:04:02.962Z,21.50
2018-11-20T02:08:54.289Z,23.17
2018-11-20T02:10:35.615Z,18.53
2018-11-20T02:14:21.016Z,19.03
2018-11-20T02:21:43.017Z,18.63
2018-11-20T02:25:39.791Z,19.77
2018-11-20T02:29:40.333Z,22.10
2018-11-20T02:43:01.356Z,17.87
2018-11-20T02:46:08.201Z,18.80
2018-11-20T02:49:21.392Z,17.63
2018-11-20T03:00:41.575Z,18.77
2018-11-20T03:04:34.812Z,18.73
2018-11-20T03:16:25.930Z,17.93
2018-11-20T03:26:40.551Z,18.23
2018-11-20T03:30:43.891Z,19.93
2018-11-20T03:37:17.871Z,20.40
2018-11-20T03:48:32.017Z,17.50
2018-11-20T03:51:12.622Z,18.10
2018-11-20T03:54:40.749Z,21.03
2018-11-20T04:08:17.936Z,19.87
2018-11-20T04:11:59.945Z,20.83
2018-11-20T04:18:39.761Z,18.27
2018-11-20T04:22:13.293Z,18.10
2018-11-20T04:30:51.002Z,18.63
2018-11-20T04:34:52.646Z,16.97
2018-11-20T04:38:41.457Z,19.70
2018-11-20T04:48:18.985Z,18.53
2018-11-20T04:55:18.205Z,21.83
2018-11-20T05:02:23.467Z,19.23
2018-11-20T05:21:00.789Z,20.40
2018-11-20T05:28:44.276Z,19.20
2018-11-20T05:35:22.114Z,19.70
2018-11-20T05:42:20.275Z,20.70
2018-11-20T05:46:21.913Z,22.00
2018-11-20T05:49:02.742Z,21.50
2018-11-20T05:52:40.243Z,22.50
2018-11-20T05:56:02.753Z,19.83
2018-11-20T06:02:19.523Z,20.77
2018-11-20T06:09:07.723Z,22.40
2018-11-20T06:12:32.182Z,22.33
2018-11-20T06:16:55.540Z,25.93
2018-11-20T06:19:47.441Z,22.20
2018-11-20T06:23:03.513Z,23.83
2018-11-20T06:34:04.800Z,23.30
2018-11-20T06:37:42.576Z,22.83
2018-11-20T06:41:17.262Z,22.43
2018-11-20T06:44:13.930Z,22.57
2018-11-20T06:47:45.941Z,22.43
2018-11-20T06:51:18.919Z,23.40
2018-11-20T06:54:19.600Z,22.63
2018-11-20T06:59:00.394Z,22.60
2018-11-20T07:02:21.229Z,23.50
2018-11-20T07:03:34.715Z,24.40
2018-11-20T07:06:29.202Z,23.53
2018-11-20T07:09:23.261Z,25.73
2018-11-20T07:12:21.069Z,24.07
2018-11-20T07:15:12.524Z,23.30
2018-11-20T07:17:59.524Z,24.93
2018-11-20T07:21:01.727Z,25.50
2018-11-20T07:23:40.170Z,23.87
2018-11-20T07:26:41.285Z,25.90
2018-11-20T07:29:44.732Z,24.60
2018-11-20T07:32:46.974Z,24.30
2018-11-20T07:35:41.285Z,22.77
2018-11-20T07:38:38.945Z,26.00
2018-11-20T07:41:31.026Z,25.47
2018-11-20T07:44:18.243Z,27.73
2018-11-20T07:47:02.030Z,24.77
2018-11-20T07:49:47.846Z,26.07
2018-11-20T07:52:45.003Z,24.43
2018-11-20T07:55:31.806Z,26.30
2018-11-20T07:58:21.619Z,26.23
2018-11-20T08:01:09.651Z,24.47
2018-11-20T08:03:57.692Z,23.57
2018-11-20T08:06:49.565Z,25.87
2018-11-20T08:09:43.978Z,25.97
2018-11-20T08:12:38.370Z,27.23
2018-11-20T08:15:30.101Z,25.20
2018-11-20T08:18:12.953Z,27.10
2018-11-20T08:21:04.701Z,25.93
2018-11-20T08:24:07.278Z,25.80
2018-11-20T08:26:55.480Z,25.33
2018-11-20T08:29:52.209Z,24.17
2018-11-20T08:32:43.795Z,30.33
2018-11-20T08:35:23.620Z,25.03
2018-11-20T08:38:11.972Z,26.67
2018-11-20T08:41:03.899Z,26.13
2018-11-20T08:43:58.320Z,24.53
2018-11-20T08:46:42.778Z,26.60
2018-11-20T08:49:30.448Z,26.60
2018-11-20T08:52:19.070Z,26.37
2018-11-20T08:55:16.615Z,24.37
2018-11-20T08:57:58.257Z,26.37
2018-11-20T09:00:45.372Z,26.27
2018-11-20T09:03:45.871Z,27.10
2018-11-20T09:06:28.501Z,25.80
2018-11-20T09:09:25.773Z,28.23
2018-11-20T09:12:11.948Z,24.73
2018-11-20T09:15:13.983Z,28.00
2018-11-20T09:17:57.501Z,27.83
2018-11-20T09:20:51.852Z,30.00
2018-11-20T09:23:41.341Z,25.40
2018-11-20T09:26:26.304Z,25.87
2018-11-20T09:29:10.717Z,24.13
2018-11-20T09:32:03.460Z,24.83
2018-11-20T09:35:08.398Z,25.33
2018-11-20T09:37:55.239Z,24.13
2018-11-20T09:41:30.258Z,28.90
2018-11-20T09:45:08.627Z,28.50
2018-11-20T09:48:03.415Z,22.83
2018-11-20T09:50:51.106Z,24.13
2018-11-20T09:53:38.194Z,26.30
2018-11-20T09:56:35.246Z,27.77
2018-11-20T09:59:23.048Z,25.10
2018-11-20T10:02:30.930Z,25.13
2018-11-20T10:05:22.673Z,24.13
2018-11-20T10:08:16.113Z,25.10
2018-11-20T10:11:06.476Z,24.13
2018-11-20T10:13:53.912Z,25.67
2018-11-20T10:16:51.391Z,25.10
2018-11-20T10:19:32.734Z,24.47
2018-11-20T10:22:20.039Z,26.27
2018-11-20T10:25:05.750Z,32.40
2018-11-20T10:27:57.602Z,25.67
2018-11-20T10:30:44.583Z,23.73
2018-11-20T10:33:50.158Z,28.00
2018-11-20T10:36:38.787Z,28.63
2018-11-20T10:39:31.095Z,23.43
2018-11-20T10:42:20.610Z,24.77
2018-11-20T10:45:11.729Z,24.87
2018-11-20T10:47:59.367Z,27.13
2018-11-20T10:50:47.584Z,25.13
2018-11-20T10:53:44.873Z,26.40
2018-11-20T10:56:32.358Z,27.53
2018-11-20T10:59:41.535Z,24.63
2018-11-20T11:02:28.627Z,27.63
2018-11-20T11:05:18.834Z,26.70
2018-11-20T11:08:07.617Z,25.57
2018-11-20T11:10:54.500Z,27.80
2018-11-20T11:13:41.873Z,25.23
2018-11-20T11:16:41.514Z,27.07
2018-11-20T11:19:36.973Z,28.03
2018-11-20T11:22:29.997Z,27.33
2018-11-20T11:25:32.828Z,26.00
2018-11-20T11:28:20.721Z,28.63
2018-11-20T11:31:10.360Z,32.00
2018-11-20T11:34:01.483Z,26.93
2018-11-20T11:36:49.042Z,24.63
2018-11-20T11:39:38.284Z,28.67
2018-11-20T11:42:17.711Z,26.37
2018-11-20T11:45:11.353Z,26.53
2018-11-20T11:49:34.470Z,25.63
2018-11-20T11:55:20.428Z,27.10
2018-11-20T11:58:52.792Z,27.00
2018-11-20T12:12:39.014Z,28.20
2018-11-20T12:15:23.076Z,28.33
2018-11-20T12:18:45.561Z,29.30
2018-11-20T12:32:55.103Z,28.03
2018-11-20T12:36:56.075Z,28.10
2018-11-20T12:41:07.383Z,28.90
2018-11-20T12:44:20.206Z,28.00
2018-11-20T12:47:18.072Z,30.40
2018-11-20T12:54:52.308Z,27.37
2018-11-20T13:02:46.708Z,29.60
2018-11-20T13:05:37.296Z,25.97
2018-11-20T13:09:49.687Z,29.10
2018-11-20T13:12:49.694Z,27.63
2018-11-20T13:16:42.933Z,31.10
2018-11-20T13:19:57.421Z,31.23
2018-11-20T13:49:32.314Z,29.77
2018-11-20T13:52:23.633Z,26.00
2018-11-20T14:02:02.432Z,26.53
2018-11-20T14:04:49.601Z,27.70
2018-11-20T14:07:54.632Z,25.37
2018-11-20T14:10:46.052Z,24.03
2018-11-20T14:13:38.035Z,22.30
2018-11-20T14:16:28.864Z,24.03
2018-11-20T14:19:19.854Z,22.83
2018-11-20T14:22:03.422Z,22.73
2018-11-20T14:24:56.971Z,20.97
2018-11-20T14:27:55.810Z,20.47
2018-11-20T14:30:46.378Z,21.93
2018-11-20T14:33:42.837Z,20.63
2018-11-20T14:36:37.193Z,23.27
2018-11-20T14:39:15.365Z,19.50
2018-11-20T14:41:54.334Z,20.30
2018-11-20T14:44:48.842Z,17.40
2018-11-20T14:47:42.365Z,21.00
2018-11-20T14:50:31.655Z,22.60
2018-11-20T14:58:33.863Z,19.93
2018-11-20T15:06:42.141Z,18.30
2018-11-20T15:14:51.213Z,19.00
2018-11-20T15:22:29.154Z,19.10
2018-11-20T15:44:11.694Z,22.53
2018-11-20T15:47:01.023Z,20.17
2018-11-20T15:49:50.841Z,20.20
2018-11-20T15:52:31.514Z,22.23
2018-11-20T15:55:32.078Z,20.27
2018-11-20T15:58:20.463Z,22.33
2018-11-20T16:01:23.216Z,19.47
2018-11-20T16:04:07.148Z,17.60
2018-11-20T16:06:54.469Z,18.83
2018-11-20T16:09:51.546Z,21.67
2018-11-20T16:12:47.688Z,21.20
2018-11-20T16:15:34.822Z,21.60
2018-11-20T16:18:24.071Z,19.80
2018-11-20T16:21:28.406Z,21.77
2018-11-20T16:24:16.320Z,18.20
2018-11-20T16:27:03.793Z,23.50
2018-11-20T16:30:01.807Z,19.40
2018-11-20T16:32:48.138Z,21.87
2018-11-20T16:35:36.569Z,18.00
2018-11-20T16:38:23.985Z,17.17
2018-11-20T16:41:14.085Z,20.50
2018-11-20T16:44:02.877Z,20.33
2018-11-20T16:47:06.813Z,20.90
2018-11-20T16:50:01.156Z,18.83
2018-11-20T16:52:52.289Z,20.40
2018-11-20T16:55:28.740Z,20.30
2018-11-20T16:58:16.177Z,19.53
2018-11-20T17:00:57.587Z,23.33
2018-11-20T17:03:51.776Z,22.40
2018-11-20T17:06:34.019Z,22.00
2018-11-20T17:09:21.043Z,21.53
2018-11-20T17:12:24.473Z,20.37
2018-11-20T17:15:11.489Z,21.07
2018-11-20T17:18:06.289Z,21.47
2018-11-20T17:21:14.350Z,21.63
2018-11-20T17:24:03.689Z,19.67
2018-11-20T17:26:48.978Z,19.40
2018-11-20T17:29:37.403Z,18.77
2018-11-20T17:32:22.580Z,21.47
2018-11-20T17:35:12.534Z,19.63
2018-11-20T17:37:51.758Z,19.93
2018-11-20T17:40:39.145Z,18.70
2018-11-20T17:43:26.645Z,18.97
2018-11-20T17:46:06.119Z,19.23
2018-11-20T17:48:57.885Z,19.40
2018-11-20T17:51:47.741Z,19.60
2018-11-20T17:54:34.694Z,19.33
2018-11-20T17:57:26.172Z,18.87
2018-11-20T18:00:27.763Z,19.50
2018-11-20T18:03:06.115Z,18.67
2018-11-20T18:06:13.236Z,17.63
2018-11-20T18:09:13.978Z,23.30
2018-11-20T18:12:14.298Z,17.83
2018-11-20T18:15:20.985Z,18.10
2018-11-20T18:18:08.570Z,18.83
2018-11-20T18:20:56.058Z,18.57
2018-11-20T18:26:21.010Z,19.37
2018-11-20T18:29:07.914Z,18.80
2018-11-20T18:31:56.374Z,17.63
2018-11-20T18:34:46.640Z,18.57
2018-11-20T18:37:35.699Z,17.93
2018-11-20T18:40:41.319Z,17.13
2018-11-20T18:43:37.284Z,18.83
2018-11-20T18:46:25.382Z,17.30
2018-11-20T18:49:12.640Z,18.47
2018-11-20T18:52:16.998Z,18.40
2018-11-20T18:55:11.646Z,19.43
2018-11-20T18:58:11.895Z,18.57
2018-11-20T19:01:18.281Z,20.43
2018-11-20T19:04:26.231Z,19.53
2018-11-20T19:07:14.761Z,19.47
2018-11-20T19:10:01.708Z,21.07
2018-11-20T19:13:02.460Z,19.40
2018-11-20T19:15:51.200Z,19.93
2018-11-20T19:18:43.925Z,18.37
2018-11-20T19:21:38.106Z,22.67
2018-11-20T19:24:32.491Z,19.27
2018-11-20T19:27:23.840Z,20.37
2018-11-20T19:30:17.155Z,20.33
2018-11-20T19:33:17.895Z,21.07
2018-11-20T19:35:58.754Z,22.67
2018-11-20T19:38:46.176Z,21.57
2018-11-20T19:41:33.003Z,22.83
2018-11-20T19:44:40.159Z,22.27
2018-11-20T19:47:27.398Z,22.60
2018-11-20T19:50:22.138Z,23.67
2018-11-20T19:53:08.198Z,25.13
2018-11-20T19:56:08.889Z,24.50
2018-11-20T19:58:59.782Z,23.17
2018-11-20T20:02:06.189Z,24.47
2018-11-20T20:05:03.893Z,25.63
2018-11-20T20:07:54.811Z,23.80
2018-11-20T20:10:48.662Z,22.13
2018-11-20T20:13:37.310Z,23.27
2018-11-20T20:16:35.425Z,25.67
2018-11-20T20:19:20.904Z,25.53
2018-11-20T20:22:08.934Z,26.33
2018-11-20T20:25:09.484Z,26.93
2018-11-20T20:28:04.544Z,25.80
2018-11-20T20:30:46.176Z,25.53
2018-11-20T20:33:34.749Z,28.33
2018-11-20T20:36:22.141Z,31.13
2018-11-20T20:39:13.477Z,26.00
2018-11-20T20:42:01.009Z,26.93
2018-11-20T20:44:58.574Z,26.43
2018-11-20T20:47:56.398Z,25.53
2018-11-20T20:50:57.580Z,26.73
2018-11-20T20:53:59.585Z,26.70
2018-11-20T20:56:56.138Z,26.90
2018-11-20T20:59:40.869Z,24.50
2018-11-20T21:02:35.218Z,25.33
2018-11-20T21:05:34.716Z,30.20
2018-11-20T21:08:30.761Z,25.37
2018-11-20T21:11:35.171Z,29.97
2018-11-20T21:14:22.947Z,27.57
2018-11-20T21:17:12.013Z,29.77
2018-11-20T21:20:17.182Z,32.83
2018-11-20T21:23:19.113Z,29.30
2018-11-20T21:26:06.769Z,29.53
2018-11-20T21:28:41.905Z,30.70
2018-11-20T21:31:39.656Z,29.87
2018-11-20T21:34:30.912Z,29.70
2018-11-20T21:37:34.514Z,33.40
2018-11-20T21:40:41.824Z,27.53
2018-11-20T21:43:30.791Z,26.93
2018-11-20T21:46:18.199Z,31.83
2018-11-20T21:49:24.788Z,28.67
2018-11-20T21:52:23.737Z,27.97
2018-11-20T21:55:14.895Z,28.50
2018-11-20T21:57:59.528Z,28.77
2018-11-20T22:01:22.051Z,30.63
2018-11-20T22:04:16.151Z,27.60
2018-11-20T22:07:06.396Z,29.03
2018-11-20T22:09:52.917Z,27.80
2018-11-20T22:12:39.973Z,28.57
2018-11-20T22:15:27.190Z,26.83
2018-11-20T22:18:15.614Z,29.80
2018-11-20T22:21:20.003Z,30.70
2018-11-20T22:24:17.664Z,27.83
2018-11-20T22:27:05.262Z,26.10
2018-11-20T22:29:50.910Z,28.47
2018-11-20T22:33:00.750Z,30.13
2018-11-20T22:35:48.323Z,28.23
2018-11-20T22:38:32.114Z,28.60
2018-11-20T22:41:18.082Z,27.73
2018-11-20T22:44:07.307Z,29.80
2018-11-20T22:46:54.518Z,31.23
2018-11-20T22:49:38.099Z,29.57
2018-11-20T22:52:38.541Z,30.17
2018-11-20T22:55:26.479Z,30.47
2018-11-20T22:58:30.162Z,31.80
2018-11-20T23:01:17.640Z,26.77
2018-11-20T23:04:04.745Z,27.50
2018-11-20T23:06:53.395Z,28.87
2018-11-20T23:09:23.034Z,30.07
2018-11-20T23:11:52.491Z,31.03
2018-11-20T23:14:22.271Z,32.87
2018-11-20T23:16:55.262Z,31.90
2018-11-20T23:19:25.373Z,32.17
2018-11-20T23:21:55.363Z,30.43
2018-11-20T23:24:25.093Z,31.27
2018-11-20T23:26:54.698Z,31.83
2018-11-20T23:29:24.098Z,29.90
2018-11-20T23:31:54.205Z,33.03
2018-11-20T23:34:23.991Z,30.63
2018-11-20T23:36:53.984Z,30.57
2018-11-20T23:39:23.383Z,30.03
2018-11-20T23:41:52.799Z,30.57
2018-11-20T23:44:23.661Z,29.60
2018-11-20T23:46:58.377Z,31.37
2018-11-20T23:49:28.175Z,30.07
2018-11-20T23:51:57.573Z,26.47
2018-11-20T23:54:26.953Z,29.37
2018-11-20T23:56:56.367Z,29.70
2018-11-20T23:59:27.977Z,31.03
